Time;durP1;ratioP1;P1;durP2;ratioP2;P2;SDS_P1;SDS_P2;PMS_P1;PMS_P2;Temp;Humidity;BMP_temperature;BMP_pressure;BME280_temperature;BME280_humidity;BME280_pressure;Samples;Min_cycle;Max_cycle;Signal;HPM_P1;HPM_P2
2022/08/13 00:05:01;;;;;;;6.35;2.28;;;18.20;99.90;;;;;;4974610;28;20094;-78
2022/08/13 00:19:58;;;;;;;2.80;1.75;;;18.20;99.90;;;;;;5019364;28;20069;-78
2022/08/13 00:27:32;;;;;;;2.35;2.00;;;18.00;99.90;;;;;;4939589;29;20282;-79
2022/08/13 00:35:10;;;;;;;10.15;2.53;;;17.90;99.90;;;;;;4857292;29;20512;-78
2022/08/13 01:12:19;;;;;;;4.35;3.03;;;17.50;99.90;;;;;;4969330;28;20101;-78
2022/08/13 01:23:36;;;;;;;4.50;2.85;;;17.40;99.90;;;;;;4988897;28;20137;-78
2022/08/13 01:27:31;;;;;;;4.80;3.15;;;17.40;99.90;;;;;;4934925;29;20475;-78
2022/08/13 01:53:30;;;;;;;6.18;3.63;;;17.30;99.90;;;;;;4942210;28;20058;-78
2022/08/13 02:01:08;;;;;;;3.58;3.28;;;17.20;99.90;;;;;;4960633;28;20220;-78
2022/08/13 02:08:36;;;;;;;4.05;2.55;;;17.10;99.90;;;;;;4972490;28;20078;-78
2022/08/13 02:20:27;;;;;;;3.03;2.67;;;16.90;99.90;;;;;;4969016;28;20045;-79
2022/08/13 02:24:13;;;;;;;4.25;3.10;;;16.80;99.90;;;;;;4916398;29;20039;-78
2022/08/13 02:31:14;;;;;;;6.30;3.75;;;16.70;99.90;;;;;;4863291;29;20451;-78
2022/08/13 02:34:24;;;;;;;5.43;3.13;;;16.60;99.90;;;;;;4841455;29;20133;-78
2022/08/13 02:37:43;;;;;;;4.55;4.13;;;16.60;99.90;;;;;;4817071;29;20057;-78
2022/08/13 02:44:54;;;;;;;3.50;3.13;;;16.50;99.90;;;;;;4808174;29;20092;-78
2022/08/13 02:48:36;;;;;;;3.05;2.80;;;16.50;99.90;;;;;;4811987;29;20059;-79
2022/08/13 02:56:09;;;;;;;6.13;3.47;;;16.40;99.90;;;;;;4804214;29;20053;-78
2022/08/13 03:02:59;;;;;;;3.97;3.58;;;16.50;99.90;;;;;;4852976;29;20171;-79
2022/08/13 03:06:03;;;;;;;6.20;3.75;;;16.50;99.90;;;;;;4858214;29;20485;-78
2022/08/13 03:12:13;;;;;;;5.55;3.60;;;16.40;99.90;;;;;;4873122;29;20064;-79
2022/08/13 03:15:37;;;;;;;6.72;4.57;;;16.40;99.90;;;;;;4834509;29;20058;-78
2022/08/13 03:18:31;;;;;;;4.45;4.05;;;16.30;99.90;;;;;;4799475;29;20122;-78
2022/08/13 03:22:02;;;;;;;7.10;5.13;;;16.20;99.90;;;;;;4847000;29;20484;-78
2022/08/13 03:25:44;;;;;;;7.13;5.13;;;16.20;99.90;;;;;;4844128;29;20078;-78
2022/08/13 03:32:55;;;;;;;4.57;4.13;;;16.20;99.90;;;;;;4934673;29;20553;-79
2022/08/13 03:35:28;;;;;;;5.18;4.28;;;16.20;99.90;;;;;;4919023;28;20048;-78
2022/08/13 03:45:30;;;;;;;6.63;4.22;;;16.20;99.90;;;;;;4975800;28;20170;-78
2022/08/13 03:48:31;;;;;;;8.70;4.40;;;16.10;99.90;;;;;;4955398;28;20521;-78
2022/08/13 03:51:03;;;;;;;9.32;4.60;;;16.00;99.90;;;;;;5001441;28;20467;-78
2022/08/13 03:54:17;;;;;;;8.57;5.03;;;16.00;99.90;;;;;;4965366;28;20432;-79
2022/08/13 03:57:19;;;;;;;7.57;4.72;;;15.90;99.90;;;;;;5038385;28;20051;-79
2022/08/13 04:00:11;;;;;;;14.05;5.38;;;15.90;99.90;;;;;;5008123;28;20454;-79
2022/08/13 04:02:57;;;;;;;7.13;4.60;;;15.90;99.90;;;;;;5047713;28;20048;-79
2022/08/13 04:06:06;;;;;;;13.35;4.68;;;15.90;99.90;;;;;;5035811;28;20130;-78
2022/08/13 04:09:18;;;;;;;7.97;4.35;;;15.80;99.90;;;;;;4937407;28;20047;-78
2022/08/13 04:12:11;;;;;;;7.38;3.92;;;15.80;99.90;;;;;;4974894;28;20046;-79
2022/08/13 04:15:11;;;;;;;6.38;4.10;;;15.80;99.90;;;;;;5026048;28;20451;-78
2022/08/13 04:18:08;;;;;;;5.57;3.67;;;15.80;99.90;;;;;;5036252;28;20041;-79
2022/08/13 04:21:14;;;;;;;6.20;3.65;;;15.90;99.90;;;;;;5013755;28;20045;-78
2022/08/13 04:28:14;;;;;;;4.28;3.55;;;15.70;99.90;;;;;;5038974;28;20041;-78
2022/08/13 04:32:21;;;;;;;5.85;3.97;;;15.70;99.90;;;;;;5048055;28;20091;-78
2022/08/13 04:39:42;;;;;;;5.93;3.40;;;15.70;99.90;;;;;;5052135;28;20040;-78
2022/08/13 04:43:32;;;;;;;4.13;3.67;;;15.80;99.90;;;;;;4896782;29;20079;-78
2022/08/13 04:47:40;;;;;;;6.00;2.63;;;15.80;99.90;;;;;;4943752;28;20051;-78
2022/08/13 04:51:47;;;;;;;3.72;2.85;;;15.80;99.90;;;;;;4933472;29;20058;-78
2022/08/13 04:58:17;;;;;;;2.85;2.47;;;15.70;99.90;;;;;;4940652;28;19920;-79
2022/08/13 05:05:22;;;;;;;6.88;3.38;;;15.80;99.90;;;;;;4836332;29;20057;-78
2022/08/13 05:12:21;;;;;;;5.70;3.10;;;15.90;99.90;;;;;;4884351;29;20051;-78
2022/08/13 05:16:02;;;;;;;3.92;2.95;;;16.00;99.90;;;;;;4964893;28;20055;-78
2022/08/13 05:19:04;;;;;;;;;;;16.10;99.90;;;;;;4876454;29;20463;-78
2022/08/13 05:29:38;;;;;;;4.00;2.72;;;16.30;99.90;;;;;;4863644;29;20069;-77
2022/08/13 05:32:50;;;;;;;5.28;3.45;;;16.40;99.90;;;;;;4878397;29;20052;-78
2022/08/13 05:36:53;;;;;;;6.20;3.60;;;16.50;99.90;;;;;;4917731;29;20522;-77
2022/08/13 05:44:55;;;;;;;5.45;4.13;;;16.70;99.90;;;;;;4868696;29;20555;-79
2022/08/13 05:48:13;;;;;;;8.02;4.38;;;16.90;99.90;;;;;;4779627;29;20060;-79
2022/08/13 05:51:43;;;;;;;9.23;4.50;;;17.10;99.90;;;;;;4954569;29;20058;-78
2022/08/13 05:55:13;;;;;;;4.88;4.07;;;17.20;99.90;;;;;;4936230;29;20126;-79
2022/08/13 06:05:30;;;;;;;8.37;4.10;;;17.90;99.90;;;;;;4861844;29;20052;-78
2022/08/13 06:08:49;;;;;;;6.22;4.25;;;18.10;99.90;;;;;;4863367;29;20357;-78
2022/08/13 06:11:59;;;;;;;5.15;3.88;;;18.20;99.90;;;;;;4827188;29;20101;-79
2022/08/13 06:23:22;;;;;;;5.97;4.10;;;18.80;99.90;;;;;;4809726;29;20049;-79
2022/08/13 06:26:50;;;;;;;3.83;3.05;;;19.10;99.90;;;;;;4800407;29;20081;-79
2022/08/13 06:37:37;;;;;;;4.85;3.28;;;19.80;99.90;;;;;;5006925;28;20041;-80
2022/08/13 07:36:19;;;;;;;6.38;1.17;;;25.00;95.10;;;;;;5048098;28;20123;-78
2022/08/13 07:39:50;;;;;;;4.95;1.00;;;25.30;94.40;;;;;;4980273;28;20047;-78
2022/08/13 08:22:52;;;;;;;2.17;0.35;;;28.10;67.90;;;;;;4214254;26;20051;-79
2022/08/13 08:26:25;;;;;;;3.90;0.47;;;28.30;67.50;;;;;;4995579;28;20060;-78
2022/08/13 08:30:15;;;;;;;8.23;0.95;;;28.30;66.10;;;;;;4985671;28;20472;-79
2022/08/13 20:55:10;;;;;;;9.93;5.78;;;22.80;84.20;;;;;;5089462;22;20113;-80
2022/08/13 20:57:36;;;;;;;4.57;2.05;;;22.70;85.00;;;;;;5064211;28;20057;-80
2022/08/13 21:00:11;;;;;;;5.75;1.77;;;22.60;86.00;;;;;;5066913;28;20132;-79
2022/08/13 21:02:37;;;;;;;4.60;1.45;;;22.60;87.60;;;;;;5068899;28;20142;-80
2022/08/13 21:05:03;;;;;;;3.08;1.23;;;22.50;88.00;;;;;;5069983;28;20079;-80
2022/08/13 21:07:29;;;;;;;5.95;1.70;;;22.50;89.30;;;;;;5066197;28;20041;-79
2022/08/13 21:09:55;;;;;;;3.50;1.63;;;22.40;90.10;;;;;;5053551;28;20037;-80
2022/08/13 21:12:21;;;;;;;1.80;1.35;;;22.40;90.80;;;;;;5068769;28;20052;-80
2022/08/13 21:14:46;;;;;;;4.60;2.45;;;22.40;91.30;;;;;;5068364;28;20084;-79
2022/08/13 21:17:12;;;;;;;4.90;2.00;;;22.30;91.80;;;;;;5069086;28;20041;-80
2022/08/13 21:19:37;;;;;;;2.55;2.13;;;22.30;92.30;;;;;;5068660;28;20435;-80
2022/08/13 21:22:03;;;;;;;4.82;2.40;;;22.30;92.90;;;;;;5068175;28;20388;-82
2022/08/13 21:24:33;;;;;;;4.80;2.63;;;22.30;93.30;;;;;;5065538;28;20048;-81
2022/08/13 21:27:00;;;;;;;4.15;2.42;;;22.30;94.10;;;;;;5084726;28;20036;-82
2022/08/13 21:29:29;;;;;;;4.28;2.00;;;22.20;94.60;;;;;;5070273;28;20060;-82
2022/08/13 21:31:56;;;;;;;4.53;2.45;;;22.30;95.10;;;;;;5069413;28;20119;-82
2022/08/13 21:34:22;;;;;;;5.32;2.33;;;22.30;95.60;;;;;;5068160;28;20394;-82
2022/08/13 21:36:48;;;;;;;3.85;2.65;;;22.20;96.00;;;;;;5070487;28;20117;-82
2022/08/13 21:39:14;;;;;;;3.17;2.83;;;22.20;96.60;;;;;;5071355;28;20042;-82
2022/08/13 21:41:40;;;;;;;11.82;3.60;;;22.20;97.20;;;;;;5068564;28;20383;-82
2022/08/13 21:44:05;;;;;;;3.40;2.38;;;22.10;97.60;;;;;;5069903;28;20042;-81
2022/08/13 21:46:31;;;;;;;3.63;2.10;;;22.10;98.10;;;;;;5069884;28;20044;-82
2022/08/13 21:48:56;;;;;;;5.53;2.95;;;22.10;98.70;;;;;;5072408;28;20851;-82
2022/08/13 21:51:23;;;;;;;3.30;2.97;;;22.10;99.40;;;;;;5069982;28;20087;-82
2022/08/13 21:58:59;;;;;;;5.30;2.55;;;21.90;99.90;;;;;;5005628;22;20084;-80
2022/08/13 22:04:45;;;;;;;3.38;2.58;;;21.90;99.90;;;;;;5069293;28;20430;-80
2022/08/13 22:11:12;;;;;;;4.35;2.63;;;21.80;99.90;;;;;;4981883;28;20052;-80
2022/08/13 22:13:40;;;;;;;3.40;2.67;;;21.80;99.90;;;;;;5069216;28;20352;-80
2022/08/13 22:17:35;;;;;;;;;;;;;;;;;;;;;
2022/08/13 22:20:20;;;;;;;3.83;2.63;;;21.70;99.90;;;;;;5025680;28;20236;-79
2022/08/13 22:23:20;;;;;;;6.68;3.55;;;21.70;99.90;;;;;;5012780;28;20582;-80
2022/08/13 22:25:55;;;;;;;4.68;3.60;;;21.70;99.90;;;;;;5013301;28;20086;-80
2022/08/13 22:36:42;;;;;;;4.65;4.13;;;21.60;99.90;;;;;;5074533;28;20168;-82
2022/08/13 22:39:21;;;;;;;4.68;3.85;;;21.60;99.90;;;;;;5069562;28;20032;-82
2022/08/13 22:42:28;;;;;;;4.53;3.88;;;21.50;99.90;;;;;;5053367;28;20039;-82
2022/08/13 22:45:36;;;;;;;6.55;3.65;;;21.50;99.90;;;;;;4985117;28;20046;-82
2022/08/13 22:48:36;;;;;;;7.95;4.13;;;21.50;99.90;;;;;;5073838;28;20044;-82
2022/08/13 22:51:25;;;;;;;4.65;4.05;;;21.30;99.90;;;;;;5072326;28;20114;-82
2022/08/13 22:54:19;;;;;;;4.35;3.50;;;21.30;99.90;;;;;;5068897;28;20067;-82
2022/08/13 22:56:52;;;;;;;6.47;4.32;;;21.30;99.90;;;;;;5069561;28;20101;-81
2022/08/13 23:00:10;;;;;;;7.03;4.80;;;21.30;99.90;;;;;;5068706;28;20049;-82
2022/08/13 23:05:55;;;;;;;5.13;4.18;;;21.20;99.90;;;;;;5068710;28;20084;-82
2022/08/13 23:08:23;;;;;;;6.20;4.05;;;21.20;99.90;;;;;;5066160;28;20455;-82
2022/08/13 23:11:50;;;;;;;;;;;;;;;;;;;;;
